sensor_id;sensor_type;location;lat;lon;timestamp;pressure;altitude;pressure_sealevel;temperature;humidity
40920;BME280;26652;50.280;19.026;2023-04-20T00:00:36;98481.47;;;8.54;100.00
40920;BME280;26652;50.280;19.026;2023-04-20T00:02:56;98464.38;;;8.40;100.00
40920;BME280;26652;50.280;19.026;2023-04-20T00:05:05;98484.47;;;8.49;100.00
40920;BME280;26652;50.280;19.026;2023-04-20T00:07:15;98483.03;;;8.55;100.00
40920;BME280;26652;50.280;19.026;2023-04-20T00:09:42;98492.72;;;8.51;100.00
40920;BME280;26652;50.280;19.026;2023-04-20T00:11:55;98487.34;;;8.46;100.00
40920;BME280;26652;50.280;19.026;2023-04-20T00:14:06;98482.91;;;8.48;100.00
40920;BME280;26652;50.280;19.026;2023-04-20T00:16:21;98486.69;;;8.52;100.00
40920;BME280;26652;50.280;19.026;2023-04-20T00:18:35;98467.06;;;8.46;100.00
40920;BME280;26652;50.280;19.026;2023-04-20T00:20:56;98475.44;;;8.55;100.00
40920;BME280;26652;50.280;19.026;2023-04-20T00:23:08;98471.44;;;8.61;100.00
40920;BME280;26652;50.280;19.026;2023-04-20T00:25:21;98457.84;;;8.45;100.00
40920;BME280;26652;50.280;19.026;2023-04-20T00:27:36;98472.59;;;8.42;100.00
40920;BME280;26652;50.280;19.026;2023-04-20T00:30:10;98477.97;;;8.55;100.00
40920;BME280;26652;50.280;19.026;2023-04-20T00:32:23;98472.25;;;8.61;100.00
40920;BME280;26652;50.280;19.026;2023-04-20T00:34:42;98464.31;;;8.56;100.00
40920;BME280;26652;50.280;19.026;2023-04-20T00:36:57;98481.72;;;8.67;100.00
40920;BME280;26652;50.280;19.026;2023-04-20T00:39:17;98475.25;;;8.65;100.00
40920;BME280;26652;50.280;19.026;2023-04-20T00:41:33;98455.13;;;8.55;100.00
40920;BME280;26652;50.280;19.026;2023-04-20T00:43:52;98464.16;;;8.58;100.00
40920;BME280;26652;50.280;19.026;2023-04-20T00:45:58;98476.53;;;8.61;100.00
40920;BME280;26652;50.280;19.026;2023-04-20T00:48:18;98464.66;;;8.53;100.00
40920;BME280;26652;50.280;19.026;2023-04-20T00:50:35;98468.78;;;8.54;100.00
40920;BME280;26652;50.280;19.026;2023-04-20T00:53:05;98471.63;;;8.51;100.00
40920;BME280;26652;50.280;19.026;2023-04-20T00:55:14;98460.56;;;8.36;100.00
40920;BME280;26652;50.280;19.026;2023-04-20T00:57:30;98445.53;;;8.26;100.00
40920;BME280;26652;50.280;19.026;2023-04-20T00:59:36;98462.47;;;8.42;100.00
40920;BME280;26652;50.280;19.026;2023-04-20T01:01:56;98438.41;;;8.22;100.00
40920;BME280;26652;50.280;19.026;2023-04-20T01:04:04;98461.97;;;8.46;100.00
40920;BME280;26652;50.280;19.026;2023-04-20T01:06:16;98449.16;;;8.40;100.00
40920;BME280;26652;50.280;19.026;2023-04-20T01:08:28;98444.88;;;8.32;100.00
40920;BME280;26652;50.280;19.026;2023-04-20T01:10:42;98447.91;;;8.36;100.00
40920;BME280;26652;50.280;19.026;2023-04-20T01:12:51;98450.09;;;8.47;100.00
40920;BME280;26652;50.280;19.026;2023-04-20T01:15:04;98460.38;;;8.53;100.00
40920;BME280;26652;50.280;19.026;2023-04-20T01:17:19;98444.66;;;8.58;100.00
40920;BME280;26652;50.280;19.026;2023-04-20T01:19:27;98432.97;;;8.41;100.00
40920;BME280;26652;50.280;19.026;2023-04-20T01:21:39;98426.94;;;8.50;100.00
40920;BME280;26652;50.280;19.026;2023-04-20T01:23:51;98447.50;;;8.63;100.00
40920;BME280;26652;50.280;19.026;2023-04-20T01:26:09;98452.72;;;8.70;100.00
40920;BME280;26652;50.280;19.026;2023-04-20T01:28:24;98453.66;;;8.69;100.00
40920;BME280;26652;50.280;19.026;2023-04-20T01:30:42;98448.41;;;8.70;100.00
40920;BME280;26652;50.280;19.026;2023-04-20T01:33:04;98441.09;;;8.75;100.00
40920;BME280;26652;50.280;19.026;2023-04-20T01:35:23;98455.38;;;8.76;100.00
40920;BME280;26652;50.280;19.026;2023-04-20T01:37:41;98452.50;;;8.79;100.00
40920;BME280;26652;50.280;19.026;2023-04-20T01:39:57;98459.81;;;8.74;100.00
40920;BME280;26652;50.280;19.026;2023-04-20T01:42:12;98459.78;;;8.82;100.00
40920;BME280;26652;50.280;19.026;2023-04-20T01:44:20;98456.13;;;8.85;100.00
40920;BME280;26652;50.280;19.026;2023-04-20T01:46:37;98431.00;;;8.67;100.00
40920;BME280;26652;50.280;19.026;2023-04-20T01:48:45;98455.50;;;8.83;100.00
40920;BME280;26652;50.280;19.026;2023-04-20T01:51:06;98465.47;;;8.93;100.00
40920;BME280;26652;50.280;19.026;2023-04-20T01:53:16;98439.31;;;8.84;100.00
40920;BME280;26652;50.280;19.026;2023-04-20T01:55:45;98455.94;;;8.95;100.00
40920;BME280;26652;50.280;19.026;2023-04-20T01:58:24;98456.84;;;9.02;100.00
40920;BME280;26652;50.280;19.026;2023-04-20T02:00:45;98460.84;;;8.96;100.00
40920;BME280;26652;50.280;19.026;2023-04-20T02:03:09;98458.31;;;8.96;100.00
40920;BME280;26652;50.280;19.026;2023-04-20T02:05:23;98446.31;;;8.82;100.00
40920;BME280;26652;50.280;19.026;2023-04-20T02:08:01;98453.31;;;8.80;100.00
40920;BME280;26652;50.280;19.026;2023-04-20T02:10:18;98465.31;;;8.86;100.00
40920;BME280;26652;50.280;19.026;2023-04-20T02:12:37;98468.94;;;8.92;100.00
40920;BME280;26652;50.280;19.026;2023-04-20T02:15:05;98477.50;;;8.99;100.00
40920;BME280;26652;50.280;19.026;2023-04-20T02:17:29;98455.34;;;8.84;100.00
40920;BME280;26652;50.280;19.026;2023-04-20T02:19:40;98465.78;;;8.90;100.00
40920;BME280;26652;50.280;19.026;2023-04-20T02:22:15;98468.41;;;9.04;100.00
40920;BME280;26652;50.280;19.026;2023-04-20T02:24:37;98467.00;;;9.02;100.00
40920;BME280;26652;50.280;19.026;2023-04-20T02:27:00;98464.28;;;9.03;100.00
40920;BME280;26652;50.280;19.026;2023-04-20T02:29:18;98444.53;;;8.91;100.00
40920;BME280;26652;50.280;19.026;2023-04-20T02:31:36;98446.87;;;9.00;100.00
40920;BME280;26652;50.280;19.026;2023-04-20T02:33:55;98441.78;;;9.00;100.00
40920;BME280;26652;50.280;19.026;2023-04-20T02:36:22;98455.09;;;9.02;100.00
40920;BME280;26652;50.280;19.026;2023-04-20T02:38:29;98460.63;;;9.06;100.00
40920;BME280;26652;50.280;19.026;2023-04-20T02:40:53;98435.50;;;8.88;100.00
40920;BME280;26652;50.280;19.026;2023-04-20T02:43:07;98457.59;;;9.10;100.00
40920;BME280;26652;50.280;19.026;2023-04-20T02:45:31;98439.25;;;9.00;100.00
40920;BME280;26652;50.280;19.026;2023-04-20T02:47:43;98447.00;;;9.07;100.00
40920;BME280;26652;50.280;19.026;2023-04-20T02:50:19;98459.47;;;9.16;100.00
40920;BME280;26652;50.280;19.026;2023-04-20T02:52:30;98432.25;;;9.02;100.00
40920;BME280;26652;50.280;19.026;2023-04-20T02:54:55;98456.75;;;9.18;100.00
40920;BME280;26652;50.280;19.026;2023-04-20T02:57:15;98462.00;;;9.16;100.00
40920;BME280;26652;50.280;19.026;2023-04-20T03:00:10;98447.81;;;8.99;100.00
40920;BME280;26652;50.280;19.026;2023-04-20T03:02:37;98462.06;;;9.08;100.00
40920;BME280;26652;50.280;19.026;2023-04-20T03:04:44;98447.06;;;8.91;100.00
40920;BME280;26652;50.280;19.026;2023-04-20T03:06:59;98459.88;;;8.97;100.00
40920;BME280;26652;50.280;19.026;2023-04-20T03:09:06;98466.38;;;9.00;100.00
40920;BME280;26652;50.280;19.026;2023-04-20T03:11:26;98464.00;;;8.98;100.00
40920;BME280;26652;50.280;19.026;2023-04-20T03:13:42;98469.75;;;8.92;100.00
40920;BME280;26652;50.280;19.026;2023-04-20T03:16:13;98457.88;;;8.84;100.00
40920;BME280;26652;50.280;19.026;2023-04-20T03:18:35;98454.25;;;8.79;100.00
40920;BME280;26652;50.280;19.026;2023-04-20T03:20:51;98462.84;;;8.70;100.00
40920;BME280;26652;50.280;19.026;2023-04-20T03:23:00;98459.97;;;8.81;100.00
40920;BME280;26652;50.280;19.026;2023-04-20T03:25:22;98465.81;;;8.81;100.00
40920;BME280;26652;50.280;19.026;2023-04-20T03:27:29;98448.88;;;8.74;100.00
40920;BME280;26652;50.280;19.026;2023-04-20T03:29:46;98437.91;;;8.81;100.00
40920;BME280;26652;50.280;19.026;2023-04-20T03:32:03;98466.38;;;9.00;100.00
40920;BME280;26652;50.280;19.026;2023-04-20T03:34:21;98476.19;;;9.03;100.00
40920;BME280;26652;50.280;19.026;2023-04-20T03:36:34;98464.66;;;8.92;100.00
40920;BME280;26652;50.280;19.026;2023-04-20T03:39:02;98476.06;;;8.96;100.00
40920;BME280;26652;50.280;19.026;2023-04-20T03:41:12;98472.41;;;8.99;100.00
40920;BME280;26652;50.280;19.026;2023-04-20T03:43:35;98488.84;;;9.11;100.00
40920;BME280;26652;50.280;19.026;2023-04-20T03:46:11;98486.09;;;9.21;100.00
40920;BME280;26652;50.280;19.026;2023-04-20T03:48:34;98490.06;;;9.23;100.00
40920;BME280;26652;50.280;19.026;2023-04-20T03:50:52;98491.53;;;9.17;100.00
40920;BME280;26652;50.280;19.026;2023-04-20T03:53:11;98478.38;;;9.14;100.00
40920;BME280;26652;50.280;19.026;2023-04-20T03:55:25;98478.88;;;9.09;100.00
40920;BME280;26652;50.280;19.026;2023-04-20T03:57:44;98477.75;;;9.12;100.00
40920;BME280;26652;50.280;19.026;2023-04-20T03:59:52;98493.69;;;9.29;100.00
40920;BME280;26652;50.280;19.026;2023-04-20T04:02:25;98476.63;;;9.14;100.00
40920;BME280;26652;50.280;19.026;2023-04-20T04:04:53;98494.19;;;9.24;100.00
40920;BME280;26652;50.280;19.026;2023-04-20T04:07:20;98480.12;;;9.13;100.00
40920;BME280;26652;50.280;19.026;2023-04-20T04:09:37;98490.72;;;9.17;100.00
40920;BME280;26652;50.280;19.026;2023-04-20T04:11:57;98482.81;;;9.12;100.00
40920;BME280;26652;50.280;19.026;2023-04-20T04:14:16;98485.66;;;9.17;100.00
40920;BME280;26652;50.280;19.026;2023-04-20T04:16:38;98477.41;;;9.15;100.00
40920;BME280;26652;50.280;19.026;2023-04-20T04:18:47;98482.63;;;9.22;100.00
40920;BME280;26652;50.280;19.026;2023-04-20T04:23:58;98480.69;;;9.24;100.00
40920;BME280;26652;50.280;19.026;2023-04-20T04:26:15;98485.28;;;9.28;100.00
40920;BME280;26652;50.280;19.026;2023-04-20T04:28:47;98484.19;;;9.23;100.00
40920;BME280;26652;50.280;19.026;2023-04-20T04:31:02;98494.59;;;9.36;100.00
40920;BME280;26652;50.280;19.026;2023-04-20T04:33:26;98494.66;;;9.28;100.00
40920;BME280;26652;50.280;19.026;2023-04-20T04:35:49;98501.50;;;9.19;100.00
40920;BME280;26652;50.280;19.026;2023-04-20T04:38:31;98476.50;;;9.08;100.00
40920;BME280;26652;50.280;19.026;2023-04-20T04:40:45;98490.22;;;9.22;100.00
40920;BME280;26652;50.280;19.026;2023-04-20T04:43:11;98498.44;;;9.32;100.00
40920;BME280;26652;50.280;19.026;2023-04-20T04:45:23;98505.50;;;9.36;100.00
40920;BME280;26652;50.280;19.026;2023-04-20T04:47:40;98509.38;;;9.32;100.00
40920;BME280;26652;50.280;19.026;2023-04-20T04:49:50;98508.06;;;9.36;100.00
40920;BME280;26652;50.280;19.026;2023-04-20T04:52:08;98516.44;;;9.45;100.00
40920;BME280;26652;50.280;19.026;2023-04-20T04:54:31;98501.22;;;9.37;100.00
40920;BME280;26652;50.280;19.026;2023-04-20T04:56:49;98485.56;;;9.33;100.00
40920;BME280;26652;50.280;19.026;2023-04-20T04:59:06;98518.28;;;9.51;100.00
40920;BME280;26652;50.280;19.026;2023-04-20T05:01:40;98504.22;;;9.40;100.00
40920;BME280;26652;50.280;19.026;2023-04-20T05:04:06;98502.38;;;9.57;100.00
40920;BME280;26652;50.280;19.026;2023-04-20T05:06:45;98524.69;;;9.70;100.00
40920;BME280;26652;50.280;19.026;2023-04-20T05:09:06;98509.28;;;9.71;100.00
40920;BME280;26652;50.280;19.026;2023-04-20T05:11:32;98506.91;;;9.70;100.00
40920;BME280;26652;50.280;19.026;2023-04-20T05:13:59;98511.47;;;9.74;100.00
40920;BME280;26652;50.280;19.026;2023-04-20T05:16:31;98521.53;;;9.68;100.00
40920;BME280;26652;50.280;19.026;2023-04-20T05:18:55;98519.94;;;9.67;100.00
40920;BME280;26652;50.280;19.026;2023-04-20T05:21:28;98523.72;;;9.71;100.00
40920;BME280;26652;50.280;19.026;2023-04-20T05:23:57;98527.47;;;9.83;100.00
40920;BME280;26652;50.280;19.026;2023-04-20T05:26:26;98524.28;;;9.81;100.00
40920;BME280;26652;50.280;19.026;2023-04-20T05:28:52;98525.97;;;9.89;100.00
40920;BME280;26652;50.280;19.026;2023-04-20T05:31:15;98527.41;;;9.91;100.00
40920;BME280;26652;50.280;19.026;2023-04-20T05:34:06;98531.00;;;9.97;99.99
40920;BME280;26652;50.280;19.026;2023-04-20T05:36:47;98530.72;;;10.14;99.02
40920;BME280;26652;50.280;19.026;2023-04-20T05:39:19;98531.94;;;10.19;97.94
40920;BME280;26652;50.280;19.026;2023-04-20T05:41:46;98529.37;;;10.27;97.13
40920;BME280;26652;50.280;19.026;2023-04-20T05:44:18;98538.75;;;10.26;96.40
40920;BME280;26652;50.280;19.026;2023-04-20T05:46:34;98536.13;;;10.34;95.93
40920;BME280;26652;50.280;19.026;2023-04-20T05:49:06;98539.28;;;10.36;96.22
40920;BME280;26652;50.280;19.026;2023-04-20T05:51:21;98543.75;;;10.49;95.73
40920;BME280;26652;50.280;19.026;2023-04-20T05:53:40;98545.87;;;10.60;95.58
40920;BME280;26652;50.280;19.026;2023-04-20T05:56:01;98547.72;;;10.52;94.81
40920;BME280;26652;50.280;19.026;2023-04-20T05:58:15;98544.03;;;10.39;95.33
40920;BME280;26652;50.280;19.026;2023-04-20T06:00:25;98548.41;;;10.45;95.79
40920;BME280;26652;50.280;19.026;2023-04-20T06:02:35;98552.97;;;10.35;95.39
40920;BME280;26652;50.280;19.026;2023-04-20T06:04:52;98547.53;;;10.38;96.09
40920;BME280;26652;50.280;19.026;2023-04-20T06:07:06;98554.38;;;10.38;95.28
40920;BME280;26652;50.280;19.026;2023-04-20T06:09:37;98561.28;;;10.06;95.86
40920;BME280;26652;50.280;19.026;2023-04-20T06:11:45;98553.44;;;9.93;96.43
40920;BME280;26652;50.280;19.026;2023-04-20T06:13:58;98563.03;;;10.06;96.91
40920;BME280;26652;50.280;19.026;2023-04-20T06:16:06;98559.63;;;10.22;95.72
40920;BME280;26652;50.280;19.026;2023-04-20T06:18:20;98559.72;;;10.28;95.73
40920;BME280;26652;50.280;19.026;2023-04-20T06:20:29;98568.50;;;10.40;94.73
40920;BME280;26652;50.280;19.026;2023-04-20T06:22:44;98561.91;;;10.31;94.71
40920;BME280;26652;50.280;19.026;2023-04-20T06:24:49;98567.91;;;10.38;94.30
40920;BME280;26652;50.280;19.026;2023-04-20T06:27:05;98559.53;;;10.44;95.00
40920;BME280;26652;50.280;19.026;2023-04-20T06:29:16;98561.84;;;10.39;94.25
40920;BME280;26652;50.280;19.026;2023-04-20T06:31:54;98564.62;;;10.44;94.51
40920;BME280;26652;50.280;19.026;2023-04-20T06:34:17;98562.19;;;10.51;94.09
40920;BME280;26652;50.280;19.026;2023-04-20T06:36:44;98566.84;;;10.62;94.48
40920;BME280;26652;50.280;19.026;2023-04-20T06:39:02;98560.28;;;10.68;94.56
40920;BME280;26652;50.280;19.026;2023-04-20T06:41:16;98567.22;;;10.89;93.96
40920;BME280;26652;50.280;19.026;2023-04-20T06:43:25;98574.16;;;11.09;91.51
40920;BME280;26652;50.280;19.026;2023-04-20T06:45:37;98566.94;;;11.13;90.38
40920;BME280;26652;50.280;19.026;2023-04-20T06:47:51;98578.16;;;11.33;90.03
40920;BME280;26652;50.280;19.026;2023-04-20T06:50:06;98575.63;;;11.55;88.28
40920;BME280;26652;50.280;19.026;2023-04-20T06:52:21;98577.13;;;11.64;88.92
40920;BME280;26652;50.280;19.026;2023-04-20T06:54:32;98582.03;;;11.65;88.23
40920;BME280;26652;50.280;19.026;2023-04-20T06:56:47;98575.16;;;11.66;87.48
40920;BME280;26652;50.280;19.026;2023-04-20T06:59:01;98583.31;;;11.76;87.62
40920;BME280;26652;50.280;19.026;2023-04-20T07:01:31;98595.19;;;11.84;86.12
40920;BME280;26652;50.280;19.026;2023-04-20T07:03:56;98573.56;;;11.79;86.06
40920;BME280;26652;50.280;19.026;2023-04-20T07:06:10;98587.44;;;11.92;85.99
40920;BME280;26652;50.280;19.026;2023-04-20T07:08:26;98580.25;;;12.23;85.72
40920;BME280;26652;50.280;19.026;2023-04-20T07:10:35;98577.31;;;12.54;85.98
40920;BME280;26652;50.280;19.026;2023-04-20T07:12:46;98594.78;;;12.51;82.42
40920;BME280;26652;50.280;19.026;2023-04-20T07:14:54;98588.00;;;12.36;81.47
40920;BME280;26652;50.280;19.026;2023-04-20T07:17:09;98591.94;;;12.67;81.42
40920;BME280;26652;50.280;19.026;2023-04-20T07:19:28;98586.41;;;12.91;80.52
40920;BME280;26652;50.280;19.026;2023-04-20T07:21:52;98590.44;;;13.14;81.91
40920;BME280;26652;50.280;19.026;2023-04-20T07:24:01;98592.09;;;14.02;77.36
40920;BME280;26652;50.280;19.026;2023-04-20T07:26:24;98599.63;;;14.50;72.89
40920;BME280;26652;50.280;19.026;2023-04-20T07:28:39;98601.19;;;14.37;74.39
40920;BME280;26652;50.280;19.026;2023-04-20T07:30:52;98595.03;;;14.05;73.39
40920;BME280;26652;50.280;19.026;2023-04-20T07:33:18;98592.59;;;13.64;74.70
40920;BME280;26652;50.280;19.026;2023-04-20T07:35:31;98595.94;;;13.65;77.02
40920;BME280;26652;50.280;19.026;2023-04-20T07:37:39;98600.03;;;13.53;77.29
40920;BME280;26652;50.280;19.026;2023-04-20T07:40:08;98596.91;;;13.51;79.30
40920;BME280;26652;50.280;19.026;2023-04-20T07:42:15;98601.25;;;13.63;77.60
40920;BME280;26652;50.280;19.026;2023-04-20T07:44:36;98597.78;;;13.84;78.57
40920;BME280;26652;50.280;19.026;2023-04-20T07:46:58;98598.78;;;14.03;76.58
40920;BME280;26652;50.280;19.026;2023-04-20T07:49:43;98600.38;;;14.37;74.49
40920;BME280;26652;50.280;19.026;2023-04-20T07:51:55;98602.75;;;14.19;73.48
40920;BME280;26652;50.280;19.026;2023-04-20T07:54:19;98599.22;;;14.46;74.38
40920;BME280;26652;50.280;19.026;2023-04-20T07:56:38;98593.72;;;14.43;74.18
40920;BME280;26652;50.280;19.026;2023-04-20T07:58:52;98588.97;;;14.26;75.04
40920;BME280;26652;50.280;19.026;2023-04-20T08:01:00;98589.16;;;14.18;73.11
40920;BME280;26652;50.280;19.026;2023-04-20T08:03:13;98591.72;;;14.18;71.76
40920;BME280;26652;50.280;19.026;2023-04-20T08:05:22;98593.88;;;14.34;72.17
40920;BME280;26652;50.280;19.026;2023-04-20T08:07:34;98593.09;;;14.60;70.03
40920;BME280;26652;50.280;19.026;2023-04-20T08:09:39;98600.56;;;14.68;70.37
40920;BME280;26652;50.280;19.026;2023-04-20T08:11:52;98595.09;;;14.45;69.41
40920;BME280;26652;50.280;19.026;2023-04-20T08:14:00;98594.47;;;14.23;70.42
40920;BME280;26652;50.280;19.026;2023-04-20T08:16:20;98594.88;;;14.20;70.93
40920;BME280;26652;50.280;19.026;2023-04-20T08:18:28;98591.91;;;14.36;71.91
40920;BME280;26652;50.280;19.026;2023-04-20T08:20:49;98583.06;;;14.26;72.25
40920;BME280;26652;50.280;19.026;2023-04-20T08:22:58;98590.53;;;14.21;72.67
40920;BME280;26652;50.280;19.026;2023-04-20T08:25:14;98584.81;;;14.19;73.95
40920;BME280;26652;50.280;19.026;2023-04-20T08:27:35;98594.88;;;14.14;73.07
40920;BME280;26652;50.280;19.026;2023-04-20T08:30:22;98594.47;;;14.23;73.50
40920;BME280;26652;50.280;19.026;2023-04-20T08:32:37;98600.78;;;14.40;72.52
40920;BME280;26652;50.280;19.026;2023-04-20T08:35:04;98603.72;;;14.57;71.22
40920;BME280;26652;50.280;19.026;2023-04-20T08:37:12;98603.53;;;14.59;71.84
40920;BME280;26652;50.280;19.026;2023-04-20T08:39:34;98602.34;;;14.61;72.21
40920;BME280;26652;50.280;19.026;2023-04-20T08:42:02;98599.97;;;14.66;70.16
40920;BME280;26652;50.280;19.026;2023-04-20T08:44:16;98595.84;;;14.65;71.46
40920;BME280;26652;50.280;19.026;2023-04-20T08:48:36;98598.72;;;15.02;70.30
40920;BME280;26652;50.280;19.026;2023-04-20T08:50:48;98596.31;;;15.20;69.88
40920;BME280;26652;50.280;19.026;2023-04-20T08:52:54;98595.50;;;15.26;70.43
40920;BME280;26652;50.280;19.026;2023-04-20T08:55:06;98594.16;;;15.17;69.63
40920;BME280;26652;50.280;19.026;2023-04-20T08:57:21;98595.66;;;15.31;67.40
40920;BME280;26652;50.280;19.026;2023-04-20T08:59:55;98596.09;;;15.22;64.55
40920;BME280;26652;50.280;19.026;2023-04-20T09:02:32;98597.03;;;15.41;65.40
40920;BME280;26652;50.280;19.026;2023-04-20T09:05:07;98590.72;;;15.36;66.63
40920;BME280;26652;50.280;19.026;2023-04-20T09:07:52;98595.62;;;15.45;65.60
40920;BME280;26652;50.280;19.026;2023-04-20T09:10:01;98592.09;;;15.39;66.46
40920;BME280;26652;50.280;19.026;2023-04-20T09:12:27;98598.16;;;15.51;65.94
40920;BME280;26652;50.280;19.026;2023-04-20T09:15:06;98596.72;;;15.62;65.91
40920;BME280;26652;50.280;19.026;2023-04-20T09:17:54;98595.12;;;15.67;65.32
40920;BME280;26652;50.280;19.026;2023-04-20T09:20:37;98599.66;;;15.65;65.55
40920;BME280;26652;50.280;19.026;2023-04-20T09:23:31;98604.09;;;15.83;64.96
40920;BME280;26652;50.280;19.026;2023-04-20T09:25:51;98603.19;;;16.02;63.15
40920;BME280;26652;50.280;19.026;2023-04-20T09:28:49;98597.44;;;16.07;63.27
40920;BME280;26652;50.280;19.026;2023-04-20T09:31:19;98599.69;;;16.22;63.17
40920;BME280;26652;50.280;19.026;2023-04-20T09:33:33;98602.38;;;16.33;62.94
40920;BME280;26652;50.280;19.026;2023-04-20T09:36:05;98589.69;;;16.39;63.35
40920;BME280;26652;50.280;19.026;2023-04-20T09:38:29;98599.81;;;16.77;60.29
40920;BME280;26652;50.280;19.026;2023-04-20T09:40:49;98607.06;;;16.86;59.42
40920;BME280;26652;50.280;19.026;2023-04-20T09:42:55;98615.03;;;16.35;59.28
40920;BME280;26652;50.280;19.026;2023-04-20T09:45:05;98600.75;;;16.39;60.99
40920;BME280;26652;50.280;19.026;2023-04-20T09:47:22;98599.75;;;16.40;61.15
40920;BME280;26652;50.280;19.026;2023-04-20T09:49:44;98598.03;;;16.77;60.34
40920;BME280;26652;50.280;19.026;2023-04-20T09:51:50;98596.97;;;16.66;59.74
40920;BME280;26652;50.280;19.026;2023-04-20T09:54:06;98591.41;;;16.45;58.81
40920;BME280;26652;50.280;19.026;2023-04-20T09:56:18;98595.34;;;16.22;60.52
40920;BME280;26652;50.280;19.026;2023-04-20T09:58:34;98591.78;;;16.23;60.46
40920;BME280;26652;50.280;19.026;2023-04-20T10:00:49;98588.91;;;16.38;60.29
40920;BME280;26652;50.280;19.026;2023-04-20T10:03:14;98578.81;;;16.61;60.62
40920;BME280;26652;50.280;19.026;2023-04-20T10:05:36;98579.62;;;16.98;59.80
40920;BME280;26652;50.280;19.026;2023-04-20T10:07:58;98582.63;;;16.77;58.16
40920;BME280;26652;50.280;19.026;2023-04-20T10:10:14;98587.34;;;17.17;57.82
40920;BME280;26652;50.280;19.026;2023-04-20T10:12:33;98578.06;;;17.16;58.31
40920;BME280;26652;50.280;19.026;2023-04-20T10:14:53;98577.78;;;17.06;58.63
40920;BME280;26652;50.280;19.026;2023-04-20T10:17:29;98581.28;;;17.11;56.94
40920;BME280;26652;50.280;19.026;2023-04-20T10:19:41;98578.28;;;17.14;56.59
40920;BME280;26652;50.280;19.026;2023-04-20T10:21:52;98574.69;;;16.97;58.09
40920;BME280;26652;50.280;19.026;2023-04-20T10:24:00;98569.06;;;16.88;60.35
40920;BME280;26652;50.280;19.026;2023-04-20T10:26:16;98563.03;;;17.31;58.62
40920;BME280;26652;50.280;19.026;2023-04-20T10:28:25;98556.25;;;17.18;57.26
40920;BME280;26652;50.280;19.026;2023-04-20T10:30:35;98568.56;;;16.98;56.82
40920;BME280;26652;50.280;19.026;2023-04-20T10:32:45;98575.34;;;16.74;56.13
40920;BME280;26652;50.280;19.026;2023-04-20T10:35:09;98563.97;;;16.63;56.93
40920;BME280;26652;50.280;19.026;2023-04-20T10:37:26;98558.50;;;16.35;57.32
40920;BME280;26652;50.280;19.026;2023-04-20T10:39:53;98573.97;;;16.28;57.58
40920;BME280;26652;50.280;19.026;2023-04-20T10:42:21;98560.37;;;15.96;58.82
40920;BME280;26652;50.280;19.026;2023-04-20T10:44:48;98550.00;;;15.85;58.70
40920;BME280;26652;50.280;19.026;2023-04-20T10:46:55;98563.25;;;15.82;59.15
40920;BME280;26652;50.280;19.026;2023-04-20T10:49:05;98560.59;;;15.95;59.31
40920;BME280;26652;50.280;19.026;2023-04-20T10:51:16;98565.56;;;15.90;59.19
40920;BME280;26652;50.280;19.026;2023-04-20T10:53:34;98564.09;;;16.00;59.57
40920;BME280;26652;50.280;19.026;2023-04-20T10:55:43;98564.62;;;16.09;59.43
40920;BME280;26652;50.280;19.026;2023-04-20T10:58:01;98559.19;;;15.99;60.58
40920;BME280;26652;50.280;19.026;2023-04-20T11:00:24;98554.19;;;15.79;60.99
40920;BME280;26652;50.280;19.026;2023-04-20T11:02:51;98565.84;;;15.75;61.34
40920;BME280;26652;50.280;19.026;2023-04-20T11:05:13;98565.31;;;15.66;60.70
40920;BME280;26652;50.280;19.026;2023-04-20T11:07:57;98561.34;;;15.70;61.29
40920;BME280;26652;50.280;19.026;2023-04-20T11:10:04;98560.25;;;15.85;60.61
40920;BME280;26652;50.280;19.026;2023-04-20T11:12:37;98555.16;;;16.10;59.36
40920;BME280;26652;50.280;19.026;2023-04-20T11:14:54;98561.34;;;16.27;59.18
40920;BME280;26652;50.280;19.026;2023-04-20T11:17:13;98548.50;;;16.27;57.61
40920;BME280;26652;50.280;19.026;2023-04-20T11:19:26;98556.44;;;16.44;59.21
40920;BME280;26652;50.280;19.026;2023-04-20T11:21:46;98553.59;;;16.52;57.68
40920;BME280;26652;50.280;19.026;2023-04-20T11:24:27;98550.84;;;16.72;57.76
40920;BME280;26652;50.280;19.026;2023-04-20T11:26:43;98549.47;;;16.69;56.66
40920;BME280;26652;50.280;19.026;2023-04-20T11:28:54;98550.63;;;16.55;56.62
40920;BME280;26652;50.280;19.026;2023-04-20T11:31:16;98557.94;;;16.33;58.06
40920;BME280;26652;50.280;19.026;2023-04-20T11:33:31;98551.63;;;16.29;57.27
40920;BME280;26652;50.280;19.026;2023-04-20T11:35:55;98554.19;;;16.29;58.61
40920;BME280;26652;50.280;19.026;2023-04-20T11:38:02;98551.63;;;16.29;58.77
40920;BME280;26652;50.280;19.026;2023-04-20T11:40:21;98555.03;;;16.23;58.04
40920;BME280;26652;50.280;19.026;2023-04-20T11:42:31;98551.31;;;16.19;58.28
40920;BME280;26652;50.280;19.026;2023-04-20T11:44:49;98553.94;;;16.12;59.19
40920;BME280;26652;50.280;19.026;2023-04-20T11:46:58;98550.75;;;15.92;59.74
40920;BME280;26652;50.280;19.026;2023-04-20T11:49:12;98552.47;;;15.98;60.08
40920;BME280;26652;50.280;19.026;2023-04-20T11:51:27;98552.87;;;15.95;60.22
40920;BME280;26652;50.280;19.026;2023-04-20T11:53:40;98552.84;;;16.01;60.46
40920;BME280;26652;50.280;19.026;2023-04-20T11:55:49;98540.91;;;16.14;61.98
40920;BME280;26652;50.280;19.026;2023-04-20T11:58:04;98550.47;;;16.25;61.96
40920;BME280;26652;50.280;19.026;2023-04-20T12:00:19;98551.38;;;16.37;59.28
40920;BME280;26652;50.280;19.026;2023-04-20T12:02:29;98561.75;;;16.24;59.32
40920;BME280;26652;50.280;19.026;2023-04-20T12:04:57;98550.38;;;16.13;59.95
40920;BME280;26652;50.280;19.026;2023-04-20T12:07:17;98544.31;;;16.08;60.74
40920;BME280;26652;50.280;19.026;2023-04-20T12:09:28;98552.31;;;16.18;60.41
40920;BME280;26652;50.280;19.026;2023-04-20T12:11:43;98551.63;;;16.29;60.90